Gabriella — OJHP — position and weather

sailwx.info

Track history (hours):
 
Tides and Currents Weather Stations Pressure Air Temp Water Temp Dewpoint Dewpoint Depression Visibility Wind Speed Wind Dir Waves Ship Positions

Gabriella

Last reported at 2016-Feb-10 20:12 UTC. Time now 2016-Feb-10 22:03 UTC.
Position N 59°22' E 018°27'.

Length 172 m; draft 6.5 m.

Type: Ship (hazmat cat A). MMSI: 230361000.

Date/timePositionNaut miles runAvg speedWind from/ knotsBaromVisibWave heightAir tempDewpointWater temp
2016-Feb-10 20:12N 59°22' E 018°27'6 9.7
2016-Feb-10 19:33N 59°21' E 018°14'5 4.8
2016-Feb-10 18:33N 59°19' E 018°06'1 1.4
2016-Feb-10 17:31N 59°19' E 018°09'9511.9
2016-Feb-10 09:32N 60°05' E 020°54'11 1.7
2016-Feb-10 03:05N 60°07' E 021°16'10113.4
2016-Feb-09 19:33N 59°22' E 018°17'6 6.2
2016-Feb-09 18:32N 59°19' E 018°06'1 1.4
2016-Feb-09 17:30N 59°19' E 018°09'9511.9
2016-Feb-09 09:33N 60°05' E 020°53'83 6.3
2016-Feb-08 20:24N 59°27' E 018°26'6 7.1
2016-Feb-08 19:30N 59°22' E 018°18'7 6.3
2016-Feb-08 18:24N 59°19' E 018°06'2 1.7
2016-Feb-08 17:29N 59°19' E 018°09'9611.8
2016-Feb-08 09:21N 60°05' E 020°57'85 6.6
2016-Feb-07 20:26N 59°27' E 018°26'6 7.0
2016-Feb-07 19:33N 59°22' E 018°19'6 3.1
2016-Feb-07 17:33N 59°19' E 018°08'9411.7
2016-Feb-07 09:32N 60°05' E 020°51'13 2.0
2016-Feb-07 03:07N 60°07' E 021°16'9414.1
2016-Feb-06 20:25N 59°27' E 018°26'6 7.1
2016-Feb-06 19:31N 59°22' E 018°18'6 2.9
2016-Feb-06 17:33N 59°19' E 018°09'9711.9
2016-Feb-06 09:24N 60°05' E 020°58'9 1.4
2016-Feb-06 03:05N 60°06' E 021°15'9414.4
2016-Feb-05 20:33N 59°27' E 018°26'7 7.4
2016-Feb-05 19:33N 59°22' E 018°16'6 4.9
2016-Feb-05 18:20N 59°19' E 018°06'1 1.8
2016-Feb-05 17:33N 59°19' E 018°09'9411.7
2016-Feb-05 09:32N 60°05' E 020°51'82 6.3
2016-Feb-04 20:30N 59°27' E 018°26'7 7.0
2016-Feb-04 19:34N 59°22' E 018°18'7 5.7
2016-Feb-04 18:21N 59°19' E 018°06'2 1.9
2016-Feb-04 17:31N 59°19' E 018°09'9 0.4
2016-Feb-03 20:07N 59°22' E 018°27'611.0
2016-Feb-03 19:33N 59°21' E 018°15'5 5.0
2016-Feb-03 18:33N 59°19' E 018°06'2 1.6
2016-Feb-03 17:33N 59°19' E 018°09'9612.0
2016-Feb-03 09:31N 60°05' E 020°57'9 1.5
2016-Feb-03 03:10N 60°06' E 021°16'9513.8
2016-Feb-02 20:16N 59°23' E 018°27'710.1
2016-Feb-02 19:33N 59°21' E 018°14'4 4.2
2016-Feb-02 18:33N 59°19' E 018°06'2 1.5
2016-Feb-02 17:32N 59°19' E 018°09'9712.0
2016-Feb-02 09:27N 60°05' E 020°59'8 1.3
2016-Feb-02 03:05N 60°06' E 021°16'9414.2
2016-Feb-01 20:30N 59°28' E 018°26'7 7.0
2016-Feb-01 19:30N 59°22' E 018°18'7 6.0
2016-Feb-01 18:20N 59°19' E 018°06'1 1.8
2016-Feb-01 17:32N 59°19' E 018°09'9611.8
2016-Feb-01 09:22N 60°05' E 020°57'16 2.7
2016-Feb-01 03:27N 60°11' E 021°27'6014.3
2016-Jan-31 23:15N 59°50' E 019°34'1318.5
2016-Jan-31 22:33N 59°44' E 019°11'1514.6
2016-Jan-31 21:33N 59°36' E 018°47'1412.8
2016-Jan-31 20:29N 59°27' E 018°26'  
Track history (hours):
 
Tides and Currents Weather Stations Pressure Air Temp Water Temp Dewpoint Dewpoint Depression Visibility Wind Speed Wind Dir Waves Ship Positions

Gabriella

Last reported at 2016-Feb-10 20:12 UTC. Time now 2016-Feb-10 22:03 UTC.
Position N 59°22' E 018°27'.

Length 172 m; draft 6.5 m.

Type: Ship (hazmat cat A). MMSI: 230361000.

Date/timePositionNaut miles runAvg speedWind from/ knotsBaromVisibWave heightAir tempDewpointWater temp
2016-Feb-10 20:12N 59°22' E 018°27'6 9.7
2016-Feb-10 19:33N 59°21' E 018°14'5 4.8
2016-Feb-10 18:33N 59°19' E 018°06'1 1.4
2016-Feb-10 17:31N 59°19' E 018°09'9511.9
2016-Feb-10 09:32N 60°05' E 020°54'11 1.7
2016-Feb-10 03:05N 60°07' E 021°16'10113.4
2016-Feb-09 19:33N 59°22' E 018°17'6 6.2
2016-Feb-09 18:32N 59°19' E 018°06'1 1.4
2016-Feb-09 17:30N 59°19' E 018°09'9511.9
2016-Feb-09 09:33N 60°05' E 020°53'83 6.3
2016-Feb-08 20:24N 59°27' E 018°26'6 7.1
2016-Feb-08 19:30N 59°22' E 018°18'7 6.3
2016-Feb-08 18:24N 59°19' E 018°06'2 1.7
2016-Feb-08 17:29N 59°19' E 018°09'9611.8
2016-Feb-08 09:21N 60°05' E 020°57'85 6.6
2016-Feb-07 20:26N 59°27' E 018°26'6 7.0
2016-Feb-07 19:33N 59°22' E 018°19'6 3.1
2016-Feb-07 17:33N 59°19' E 018°08'9411.7
2016-Feb-07 09:32N 60°05' E 020°51'13 2.0
2016-Feb-07 03:07N 60°07' E 021°16'9414.1
2016-Feb-06 20:25N 59°27' E 018°26'6 7.1
2016-Feb-06 19:31N 59°22' E 018°18'6 2.9
2016-Feb-06 17:33N 59°19' E 018°09'9711.9
2016-Feb-06 09:24N 60°05' E 020°58'9 1.4
2016-Feb-06 03:05N 60°06' E 021°15'9414.4
2016-Feb-05 20:33N 59°27' E 018°26'7 7.4
2016-Feb-05 19:33N 59°22' E 018°16'6 4.9
2016-Feb-05 18:20N 59°19' E 018°06'1 1.8
2016-Feb-05 17:33N 59°19' E 018°09'9411.7
2016-Feb-05 09:32N 60°05' E 020°51'82 6.3
2016-Feb-04 20:30N 59°27' E 018°26'7 7.0
2016-Feb-04 19:34N 59°22' E 018°18'7 5.7
2016-Feb-04 18:21N 59°19' E 018°06'2 1.9
2016-Feb-04 17:31N 59°19' E 018°09'9 0.4
2016-Feb-03 20:07N 59°22' E 018°27'611.0
2016-Feb-03 19:33N 59°21' E 018°15'5 5.0
2016-Feb-03 18:33N 59°19' E 018°06'2 1.6
2016-Feb-03 17:33N 59°19' E 018°09'9612.0
2016-Feb-03 09:31N 60°05' E 020°57'9 1.5
2016-Feb-03 03:10N 60°06' E 021°16'9513.8
2016-Feb-02 20:16N 59°23' E 018°27'710.1
2016-Feb-02 19:33N 59°21' E 018°14'4 4.2
2016-Feb-02 18:33N 59°19' E 018°06'2 1.5
2016-Feb-02 17:32N 59°19' E 018°09'9712.0
2016-Feb-02 09:27N 60°05' E 020°59'8 1.3
2016-Feb-02 03:05N 60°06' E 021°16'9414.2
2016-Feb-01 20:30N 59°28' E 018°26'7 7.0
2016-Feb-01 19:30N 59°22' E 018°18'7 6.0
2016-Feb-01 18:20N 59°19' E 018°06'1 1.8
2016-Feb-01 17:32N 59°19' E 018°09'9611.8
2016-Feb-01 09:22N 60°05' E 020°57'16 2.7
2016-Feb-01 03:27N 60°11' E 021°27'6014.3
2016-Jan-31 23:15N 59°50' E 019°34'1318.5
2016-Jan-31 22:33N 59°44' E 019°11'1514.6
2016-Jan-31 21:33N 59°36' E 018°47'1412.8
2016-Jan-31 20:29N 59°27' E 018°26'  

Dump ship's entire track history